createdAt,value
2019-04-06T00:01:31.020Z,6.00
2019-04-06T00:04:00.665Z,5.90
2019-04-06T00:06:30.231Z,6.00
2019-04-06T00:08:59.994Z,6.00
2019-04-06T00:11:29.304Z,5.90
2019-04-06T00:13:58.784Z,5.90
2019-04-06T00:16:28.511Z,5.80
2019-04-06T00:19:02.822Z,5.80
2019-04-06T00:21:32.500Z,5.80
2019-04-06T00:24:02.005Z,5.70
2019-04-06T00:26:31.665Z,5.60
2019-04-06T00:29:01.671Z,5.60
2019-04-06T00:31:49.218Z,5.60
2019-04-06T00:34:21.574Z,5.60
2019-04-06T00:36:52.947Z,5.50
2019-04-06T00:39:22.924Z,5.50
2019-04-06T00:41:53.228Z,5.50
2019-04-06T00:44:22.935Z,5.50
2019-04-06T00:46:57.409Z,5.50
2019-04-06T00:49:27.904Z,5.50
2019-04-06T00:51:57.925Z,5.40
2019-04-06T00:54:27.662Z,5.30
2019-04-06T00:56:58.170Z,5.30
2019-04-06T00:59:27.882Z,5.40
2019-04-06T01:02:02.318Z,5.30
2019-04-06T01:04:32.228Z,5.30
2019-04-06T01:09:37.247Z,5.20
2019-04-06T01:12:07.273Z,5.10
2019-04-06T01:14:36.961Z,5.20
2019-04-06T01:17:07.275Z,5.20
2019-04-06T01:19:37.238Z,5.20
2019-04-06T01:22:07.026Z,5.20
2019-04-06T01:24:36.658Z,5.20
2019-04-06T01:27:08.383Z,5.20
2019-04-06T01:29:38.466Z,5.10
2019-04-06T01:32:08.031Z,5.00
2019-04-06T01:34:37.873Z,4.90
2019-04-06T01:37:07.870Z,5.00
2019-04-06T01:39:37.594Z,4.90
2019-04-06T01:42:09.655Z,4.90
2019-04-06T01:44:39.369Z,5.00
2019-04-06T01:47:09.214Z,5.00
2019-04-06T01:49:38.977Z,4.90
2019-04-06T01:52:08.603Z,4.90
2019-04-06T01:54:38.885Z,4.80
2019-04-06T01:57:09.117Z,4.70
2019-04-06T01:59:38.901Z,4.70
2019-04-06T02:02:22.179Z,4.70
2019-04-06T02:04:52.190Z,4.70
2019-04-06T02:07:24.286Z,4.70
2019-04-06T02:09:54.475Z,4.60
2019-04-06T02:12:24.612Z,4.60
2019-04-06T02:14:55.877Z,4.60
2019-04-06T02:17:25.506Z,4.60
2019-04-06T02:19:55.172Z,4.60
2019-04-06T02:22:25.170Z,4.60
2019-04-06T02:24:56.145Z,4.60
2019-04-06T02:27:26.512Z,4.60
2019-04-06T02:30:13.961Z,4.60
2019-04-06T02:33:21.374Z,4.60
2019-04-06T02:39:55.309Z,4.50
2019-04-06T02:43:02.833Z,4.40
2019-04-06T02:45:32.984Z,4.50
2019-04-06T02:48:03.212Z,4.40
2019-04-06T02:50:32.875Z,4.30
2019-04-06T02:53:02.689Z,4.30
2019-04-06T02:55:32.314Z,4.30
2019-04-06T02:58:02.393Z,4.30
2019-04-06T03:00:32.872Z,4.30
2019-04-06T03:03:04.390Z,4.30
2019-04-06T03:05:34.992Z,4.30
2019-04-06T03:08:07.790Z,4.30
2019-04-06T03:10:37.819Z,4.10
2019-04-06T03:13:08.077Z,4.10
2019-04-06T03:15:38.715Z,4.20
2019-04-06T03:18:10.609Z,4.20
2019-04-06T03:20:40.283Z,4.20
2019-04-06T03:23:10.941Z,4.10
2019-04-06T03:25:40.542Z,4.10
2019-04-06T03:28:10.242Z,4.10
2019-04-06T03:30:40.267Z,3.90
2019-04-06T03:33:11.026Z,4.00
2019-04-06T03:35:47.001Z,4.10
2019-04-06T03:38:11.889Z,4.00
2019-04-06T03:43:18.862Z,4.00
2019-04-06T03:45:48.797Z,3.90
2019-04-06T03:48:18.668Z,3.90
2019-04-06T03:50:48.347Z,3.90
2019-04-06T03:53:17.673Z,3.90
2019-04-06T03:55:47.177Z,3.90
2019-04-06T03:58:16.952Z,3.90
2019-04-06T04:00:47.306Z,4.00
2019-04-06T04:03:17.607Z,4.00
2019-04-06T04:05:47.911Z,3.90
2019-04-06T04:08:18.095Z,3.60
2019-04-06T04:10:48.140Z,3.70
2019-04-06T04:13:18.059Z,3.80
2019-04-06T04:15:48.355Z,3.80
2019-04-06T04:18:19.043Z,3.80
2019-04-06T04:20:49.308Z,3.80
2019-04-06T04:23:19.207Z,3.80
2019-04-06T04:25:49.098Z,3.70
2019-04-06T04:28:19.124Z,3.80
2019-04-06T04:30:50.277Z,3.80
2019-04-06T04:33:20.829Z,3.70
2019-04-06T04:35:51.528Z,3.70
2019-04-06T04:38:21.201Z,3.70
2019-04-06T04:40:52.687Z,3.70
2019-04-06T04:43:22.326Z,3.80
2019-04-06T04:45:52.600Z,3.80
2019-04-06T04:48:22.890Z,3.70
2019-04-06T04:53:27.746Z,3.50
2019-04-06T04:55:57.844Z,3.60
2019-04-06T04:58:27.404Z,3.60
2019-04-06T05:00:56.966Z,3.60
2019-04-06T05:03:26.699Z,3.70
2019-04-06T05:05:56.416Z,3.70
2019-04-06T05:08:26.663Z,3.70
2019-04-06T05:10:56.602Z,3.70
2019-04-06T05:13:26.432Z,3.70
2019-04-06T05:16:21.653Z,3.30
2019-04-06T05:18:51.583Z,3.20
2019-04-06T05:21:21.653Z,3.10
2019-04-06T05:23:51.806Z,3.20
2019-04-06T05:26:21.694Z,3.40
2019-04-06T05:28:51.341Z,3.60
2019-04-06T05:31:21.172Z,3.60
2019-04-06T05:33:51.199Z,3.70
2019-04-06T05:36:21.295Z,3.70
2019-04-06T05:38:51.873Z,3.80
2019-04-06T05:41:21.557Z,3.80
2019-04-06T05:43:51.929Z,3.90
2019-04-06T05:46:22.058Z,3.80
2019-04-06T05:48:53.096Z,3.70
2019-04-06T05:51:22.769Z,3.70
2019-04-06T05:53:52.492Z,3.90
2019-04-06T05:56:22.159Z,4.00
2019-04-06T06:02:29.002Z,4.10
2019-04-06T06:07:35.527Z,4.10
2019-04-06T06:12:41.772Z,4.30
2019-04-06T06:15:11.969Z,4.40
2019-04-06T06:17:42.087Z,4.50
2019-04-06T06:22:47.961Z,4.40
2019-04-06T06:25:18.446Z,4.40
2019-04-06T06:27:48.743Z,4.60
2019-04-06T06:30:19.251Z,4.70
2019-04-06T06:32:48.698Z,4.70
2019-04-06T06:35:18.423Z,4.80
2019-04-06T06:37:48.280Z,4.80
2019-04-06T06:40:17.859Z,4.90
2019-04-06T06:42:47.327Z,5.00
2019-04-06T06:45:16.823Z,5.00
2019-04-06T06:47:46.639Z,5.10
2019-04-06T06:50:16.457Z,5.10
2019-04-06T06:52:46.038Z,5.10
2019-04-06T06:55:16.097Z,5.20
2019-04-06T06:57:45.777Z,5.30
2019-04-06T07:00:15.641Z,5.30
2019-04-06T07:02:45.250Z,5.40
2019-04-06T07:05:15.653Z,5.50
2019-04-06T07:07:45.321Z,5.60
2019-04-06T07:10:14.961Z,5.70
2019-04-06T07:12:44.652Z,5.80
2019-04-06T07:15:14.412Z,5.90
2019-04-06T07:17:44.725Z,6.00
2019-04-06T07:20:15.457Z,6.10
2019-04-06T07:22:45.180Z,6.20
2019-04-06T07:25:15.766Z,6.30
2019-04-06T07:27:45.336Z,6.40
2019-04-06T07:30:15.020Z,6.50
2019-04-06T07:32:44.687Z,6.60
2019-04-06T07:35:14.686Z,6.70
2019-04-06T07:37:44.399Z,6.80
2019-04-06T07:40:14.354Z,7.00
2019-04-06T07:42:45.285Z,7.10
2019-04-06T07:45:15.249Z,7.30
2019-04-06T07:47:45.015Z,7.30
2019-04-06T07:50:15.561Z,7.50
2019-04-06T07:52:45.359Z,7.60
2019-04-06T07:55:15.697Z,7.70
2019-04-06T07:57:45.914Z,7.90
2019-04-06T08:00:16.076Z,8.00
2019-04-06T08:02:46.020Z,8.20
2019-04-06T08:05:15.662Z,8.20
2019-04-06T08:07:46.231Z,8.20
2019-04-06T08:10:17.046Z,8.40
2019-04-06T08:12:47.199Z,8.40
2019-04-06T08:15:18.624Z,8.60
2019-04-06T08:17:52.027Z,8.70
2019-04-06T08:20:27.971Z,8.80
2019-04-06T08:22:57.951Z,8.90
2019-04-06T08:25:28.911Z,9.00
2019-04-06T08:28:01.911Z,9.10
2019-04-06T08:30:47.864Z,9.20
2019-04-06T08:33:20.187Z,9.30
2019-04-06T08:36:01.433Z,9.50
2019-04-06T08:38:56.592Z,9.50
2019-04-06T08:41:30.288Z,9.70
2019-04-06T08:44:15.104Z,9.90
2019-04-06T08:46:48.719Z,9.90
2019-04-06T08:49:18.485Z,10.00
2019-04-06T08:51:48.274Z,10.20
2019-04-06T08:54:19.499Z,10.20
2019-04-06T08:56:49.757Z,10.30
2019-04-06T08:59:19.325Z,10.30
2019-04-06T09:01:51.610Z,10.50
2019-04-06T09:04:22.295Z,10.60
2019-04-06T09:06:54.350Z,10.60
2019-04-06T09:09:24.755Z,10.80
2019-04-06T09:12:03.044Z,10.80
2019-04-06T09:14:33.473Z,11.00
2019-04-06T09:17:03.387Z,10.90
2019-04-06T09:19:33.782Z,11.00
2019-04-06T09:22:07.231Z,11.00
2019-04-06T09:24:37.228Z,11.00
2019-04-06T09:27:14.424Z,11.10
2019-04-06T09:29:45.796Z,11.10
2019-04-06T09:32:19.405Z,11.10
2019-04-06T09:34:50.184Z,11.10
2019-04-06T09:37:20.302Z,11.20
2019-04-06T09:39:57.447Z,11.30
2019-04-06T09:42:34.161Z,11.20
2019-04-06T09:45:21.001Z,11.30
2019-04-06T09:48:13.218Z,11.50
2019-04-06T09:51:08.099Z,11.70
2019-04-06T09:54:05.149Z,11.70
2019-04-06T09:57:04.656Z,11.80
2019-04-06T10:00:04.181Z,11.80
2019-04-06T10:02:59.552Z,11.90
2019-04-06T10:05:36.424Z,11.90
2019-04-06T10:08:28.839Z,11.90
2019-04-06T10:14:36.347Z,11.80
2019-04-06T10:18:01.986Z,11.90
2019-04-06T10:27:44.639Z,12.20
2019-04-06T10:30:39.333Z,12.20
2019-04-06T10:33:27.265Z,12.40
2019-04-06T10:36:34.213Z,12.40
2019-04-06T10:42:29.577Z,12.60
2019-04-06T10:45:20.257Z,12.50
2019-04-06T10:48:08.539Z,12.50
2019-04-06T10:50:56.602Z,12.70
2019-04-06T10:53:42.859Z,12.60
2019-04-06T10:56:31.671Z,12.50
2019-04-06T10:59:24.107Z,12.50
2019-04-06T11:02:21.720Z,12.50
2019-04-06T11:05:17.015Z,12.60
2019-04-06T11:07:59.470Z,12.60
2019-04-06T11:10:40.140Z,12.60
2019-04-06T11:13:31.964Z,12.50
2019-04-06T11:16:20.360Z,12.60
2019-04-06T11:19:12.582Z,12.40
2019-04-06T11:22:16.953Z,12.40
2019-04-06T11:25:17.350Z,12.40
2019-04-06T11:28:11.945Z,12.40
2019-04-06T11:31:03.692Z,12.40
2019-04-06T11:33:55.236Z,12.40
2019-04-06T11:39:37.594Z,12.10
2019-04-06T11:42:21.382Z,12.00
2019-04-06T11:45:22.611Z,12.00
2019-04-06T11:48:15.737Z,11.80
2019-04-06T11:51:09.972Z,11.80
2019-04-06T11:53:59.116Z,11.70
2019-04-06T11:56:59.926Z,11.80
2019-04-06T11:59:53.554Z,11.80
2019-04-06T12:02:28.241Z,11.80
2019-04-06T12:05:04.345Z,11.80
2019-04-06T12:07:48.116Z,11.80
2019-04-06T12:10:36.550Z,11.80
2019-04-06T12:13:24.563Z,11.80
2019-04-06T12:16:13.470Z,11.80
2019-04-06T12:19:03.417Z,11.80
2019-04-06T12:21:46.098Z,11.90
2019-04-06T12:24:27.299Z,11.90
2019-04-06T12:27:31.607Z,12.00
2019-04-06T12:33:14.939Z,12.40
2019-04-06T12:36:03.029Z,12.60
2019-04-06T12:39:05.039Z,12.70
2019-04-06T12:41:53.356Z,12.80
2019-04-06T12:44:41.385Z,12.90
2019-04-06T12:47:23.843Z,13.10
2019-04-06T12:50:15.638Z,13.20
2019-04-06T12:55:56.552Z,13.30
2019-04-06T12:58:45.403Z,13.40
2019-04-06T13:01:32.825Z,13.50
2019-04-06T13:04:28.714Z,13.60
2019-04-06T13:07:25.929Z,13.70
2019-04-06T13:10:32.920Z,13.70
2019-04-06T13:13:28.293Z,13.70
2019-04-06T13:16:16.951Z,13.70
2019-04-06T13:19:13.819Z,13.80
2019-04-06T13:22:11.774Z,13.80
2019-04-06T13:25:12.902Z,14.00
2019-04-06T13:28:04.623Z,14.00
2019-04-06T13:31:08.645Z,13.90
2019-04-06T13:33:45.715Z,13.80
2019-04-06T13:36:28.194Z,13.70
2019-04-06T13:39:26.200Z,13.70
2019-04-06T13:45:24.683Z,13.60
2019-04-06T13:48:21.436Z,13.60
2019-04-06T13:51:00.118Z,13.60
2019-04-06T13:53:52.776Z,13.60
2019-04-06T13:56:40.945Z,13.60
2019-04-06T13:59:39.083Z,13.60
2019-04-06T14:02:36.908Z,13.50
2019-04-06T14:05:24.063Z,13.40
2019-04-06T14:08:15.355Z,13.40
2019-04-06T14:11:07.829Z,13.40
2019-04-06T14:13:54.599Z,13.60
2019-04-06T14:16:42.285Z,13.60
2019-04-06T14:19:33.978Z,13.70
2019-04-06T14:22:25.303Z,13.80
2019-04-06T14:25:05.827Z,13.70
2019-04-06T14:27:57.205Z,13.80
2019-04-06T14:31:03.610Z,13.70
2019-04-06T14:33:57.673Z,13.80
2019-04-06T14:36:46.014Z,13.80
2019-04-06T14:39:27.324Z,13.70
2019-04-06T14:42:16.276Z,13.70
2019-04-06T14:45:04.839Z,13.50
2019-04-06T14:48:11.725Z,13.50
2019-04-06T14:50:58.865Z,13.50
2019-04-06T14:53:38.018Z,13.50
2019-04-06T14:56:20.080Z,13.60
2019-04-06T14:59:00.482Z,13.60
2019-04-06T15:01:56.698Z,13.60
2019-04-06T15:04:34.374Z,13.60
2019-04-06T15:07:26.638Z,13.40
2019-04-06T15:10:14.358Z,13.30
2019-04-06T15:13:04.627Z,13.20
2019-04-06T15:16:05.503Z,13.10
2019-04-06T15:19:02.986Z,13.10
2019-04-06T15:21:39.630Z,13.20
2019-04-06T15:24:18.468Z,13.30
2019-04-06T15:27:09.459Z,13.40
2019-04-06T15:30:13.439Z,13.50
2019-04-06T15:35:49.466Z,13.60
2019-04-06T15:38:54.057Z,13.60
2019-04-06T15:41:54.743Z,13.70
2019-04-06T15:44:38.533Z,13.80
2019-04-06T15:47:30.044Z,13.70
2019-04-06T15:50:15.765Z,13.80
2019-04-06T15:52:59.737Z,13.80
2019-04-06T15:55:43.200Z,13.80
2019-04-06T15:58:21.659Z,13.80
2019-04-06T16:01:25.243Z,14.00
2019-04-06T16:04:13.468Z,14.10
2019-04-06T16:07:02.371Z,14.10
2019-04-06T16:09:49.768Z,14.10
2019-04-06T16:12:37.596Z,14.10
2019-04-06T16:15:25.184Z,14.10
2019-04-06T16:18:17.582Z,14.00
2019-04-06T16:21:12.118Z,14.00
2019-04-06T16:24:01.592Z,13.90
2019-04-06T16:27:01.085Z,13.90
2019-04-06T16:29:50.386Z,13.90
2019-04-06T16:32:57.683Z,13.90
2019-04-06T16:35:51.087Z,13.90
2019-04-06T16:38:34.242Z,14.10
2019-04-06T16:44:05.435Z,14.60
2019-04-06T16:46:57.078Z,14.70
2019-04-06T16:49:39.529Z,14.80
2019-04-06T16:55:47.101Z,15.00
2019-04-06T16:58:46.322Z,14.60
2019-04-06T17:11:16.885Z,13.40
2019-04-06T17:13:59.114Z,13.20
2019-04-06T17:16:54.010Z,13.00
2019-04-06T17:19:55.291Z,12.90
2019-04-06T17:25:27.125Z,12.60
2019-04-06T17:28:25.613Z,12.50
2019-04-06T17:31:28.703Z,12.40
2019-04-06T17:40:02.153Z,12.10
2019-04-06T17:46:06.051Z,11.90
2019-04-06T17:48:52.148Z,11.80
2019-04-06T17:51:53.549Z,11.80
2019-04-06T17:55:14.481Z,11.70
2019-04-06T17:57:59.690Z,11.60
2019-04-06T18:03:44.023Z,11.40
2019-04-06T18:06:25.992Z,11.30
2019-04-06T18:09:38.091Z,11.30
2019-04-06T18:15:04.093Z,11.10
2019-04-06T18:17:34.121Z,11.00
2019-04-06T18:20:09.706Z,11.00
2019-04-06T18:22:41.614Z,10.90
2019-04-06T18:25:12.243Z,10.80
2019-04-06T18:27:42.367Z,10.70
2019-04-06T18:30:12.370Z,10.70
2019-04-06T18:35:38.826Z,10.60
2019-04-06T18:38:15.117Z,10.50
2019-04-06T18:40:52.522Z,10.50
2019-04-06T18:43:23.267Z,10.40
2019-04-06T18:46:05.300Z,10.40
2019-04-06T18:53:49.055Z,10.30
2019-04-06T18:56:24.457Z,10.20
2019-04-06T18:58:56.437Z,10.20
2019-04-06T19:01:26.261Z,10.10
2019-04-06T19:03:57.647Z,10.00
2019-04-06T19:06:28.247Z,10.00
2019-04-06T19:08:59.815Z,9.90
2019-04-06T19:11:33.865Z,9.80
2019-04-06T19:14:09.561Z,9.80
2019-04-06T19:16:39.560Z,9.70
2019-04-06T19:19:10.438Z,9.60
2019-04-06T19:21:41.081Z,9.60
2019-04-06T19:24:11.257Z,9.60
2019-04-06T19:26:42.218Z,9.50
2019-04-06T19:29:16.068Z,9.50
2019-04-06T19:31:48.886Z,9.40
2019-04-06T19:34:20.669Z,9.40
2019-04-06T19:36:52.162Z,9.30
2019-04-06T19:39:22.244Z,9.30
2019-04-06T19:41:54.055Z,9.20
2019-04-06T19:44:27.248Z,9.20
2019-04-06T19:47:02.370Z,9.10
2019-04-06T19:49:35.220Z,9.00
2019-04-06T19:52:09.641Z,9.00
2019-04-06T19:54:40.522Z,9.00
2019-04-06T19:57:11.208Z,9.00
2019-04-06T19:59:41.421Z,9.00
2019-04-06T20:02:12.134Z,9.00
2019-04-06T20:04:46.715Z,8.90
2019-04-06T20:07:17.281Z,8.90
2019-04-06T20:10:03.997Z,8.90
2019-04-06T20:12:36.039Z,8.80
2019-04-06T20:15:06.903Z,8.80
2019-04-06T20:17:37.932Z,8.80
2019-04-06T20:20:08.662Z,8.80
2019-04-06T20:22:38.520Z,8.80
2019-04-06T20:25:08.366Z,8.80
2019-04-06T20:27:38.444Z,8.80
2019-04-06T20:30:09.513Z,8.80
2019-04-06T20:32:39.602Z,8.80
2019-04-06T20:35:09.743Z,8.80
2019-04-06T20:37:40.128Z,8.80
2019-04-06T20:40:11.877Z,8.80
2019-04-06T20:42:42.596Z,8.70
2019-04-06T20:45:17.403Z,8.70
2019-04-06T20:47:48.686Z,8.60
2019-04-06T20:50:19.420Z,8.60
2019-04-06T20:52:50.765Z,8.60
2019-04-06T20:55:22.048Z,8.50
2019-04-06T20:57:51.891Z,8.50
2019-04-06T21:00:21.965Z,8.50
2019-04-06T21:02:52.057Z,8.50
2019-04-06T21:05:22.361Z,8.40
2019-04-06T21:07:55.433Z,8.40
2019-04-06T21:10:28.285Z,8.40
2019-04-06T21:12:58.847Z,8.30
2019-04-06T21:15:28.578Z,8.20
2019-04-06T21:17:59.875Z,8.20
2019-04-06T21:20:31.469Z,8.20
2019-04-06T21:23:01.675Z,8.20
2019-04-06T21:25:31.100Z,8.10
2019-04-06T21:41:02.807Z,7.80
2019-04-06T21:43:34.429Z,7.80
2019-04-06T21:46:07.746Z,7.80
2019-04-06T21:48:38.435Z,7.70
2019-04-06T21:51:08.544Z,7.80
2019-04-06T21:53:44.471Z,7.80
2019-04-06T21:56:15.671Z,7.80
2019-04-06T21:58:46.276Z,7.70
2019-04-06T22:01:18.620Z,7.70
2019-04-06T22:03:49.573Z,7.70
2019-04-06T22:06:20.615Z,7.70
2019-04-06T22:08:52.226Z,7.60
2019-04-06T22:11:22.939Z,7.50
2019-04-06T22:14:05.610Z,7.50
2019-04-06T22:16:39.172Z,7.50
2019-04-06T22:19:09.994Z,7.50
2019-04-06T22:21:40.326Z,7.60
2019-04-06T22:24:11.909Z,7.50
2019-04-06T22:26:41.581Z,7.50
2019-04-06T22:29:11.770Z,7.50
2019-04-06T22:31:41.573Z,7.50
2019-04-06T22:34:11.754Z,7.50
2019-04-06T22:36:42.418Z,7.50
2019-04-06T22:39:13.256Z,7.50
2019-04-06T22:41:49.681Z,7.30
2019-04-06T22:44:21.353Z,7.30
2019-04-06T22:46:51.490Z,7.30
2019-04-06T22:52:08.032Z,7.30
2019-04-06T22:54:38.774Z,7.20
2019-04-06T22:57:09.076Z,7.30
2019-04-06T22:59:39.237Z,7.30
2019-04-06T23:02:10.198Z,7.20
2019-04-06T23:04:57.586Z,7.20
2019-04-06T23:07:28.071Z,7.10
2019-04-06T23:09:57.794Z,7.10
2019-04-06T23:15:04.918Z,7.10
2019-04-06T23:17:34.571Z,7.10
2019-04-06T23:20:04.695Z,7.00
2019-04-06T23:25:13.441Z,6.90
2019-04-06T23:27:42.994Z,6.80
2019-04-06T23:30:13.098Z,6.90
2019-04-06T23:32:45.893Z,6.80
2019-04-06T23:35:18.838Z,6.90
2019-04-06T23:37:49.204Z,6.80
2019-04-06T23:40:20.313Z,6.70
2019-04-06T23:42:54.939Z,6.70
2019-04-06T23:45:26.231Z,6.70
2019-04-06T23:47:56.567Z,6.70
2019-04-06T23:50:33.102Z,6.70
2019-04-06T23:53:05.594Z,6.70
2019-04-06T23:59:12.146Z,6.60
